Time;durP1;ratioP1;P1;durP2;ratioP2;P2;SDS_P1;SDS_P2;PMS_P1;PMS_P2;Temp;Humidity;BMP_temperature;BMP_pressure;BME280_temperature;BME280_humidity;BME280_pressure;Samples;Min_cycle;Max_cycle;Signal;HPM_P1;HPM_P2
2022/01/22 00:01:46;;;;;;;5.22;2.63;;;22.10;45.10;;;;;;5071732;28;20392;-61
2022/01/22 00:04:12;;;;;;;5.32;2.40;;;22.10;45.20;;;;;;5062867;28;38138;-62
2022/01/22 00:06:37;;;;;;;9.68;2.75;;;22.10;45.20;;;;;;5070627;28;20085;-62
2022/01/22 00:09:04;;;;;;;5.50;2.17;;;22.00;45.10;;;;;;5067936;28;20044;-59
2022/01/22 00:11:36;;;;;;;7.63;2.40;;;22.00;45.10;;;;;;5070706;28;20159;-60
2022/01/22 00:14:23;;;;;;;8.23;2.53;;;22.00;45.10;;;;;;5067505;28;20043;-61
2022/01/22 00:16:53;;;;;;;5.30;1.92;;;21.90;45.10;;;;;;5068262;28;48099;-61
2022/01/22 00:19:19;;;;;;;4.83;2.03;;;21.90;45.20;;;;;;5068374;28;20147;-62
2022/01/22 00:21:44;;;;;;;4.05;2.03;;;21.90;45.20;;;;;;5071400;28;20075;-60
2022/01/22 00:24:12;;;;;;;5.57;2.03;;;21.80;45.10;;;;;;5067640;28;20028;-60
2022/01/22 00:26:37;;;;;;;4.50;2.25;;;21.80;45.20;;;;;;5066095;28;20036;-60
2022/01/22 00:29:03;;;;;;;4.15;2.25;;;21.80;45.10;;;;;;5067947;28;20365;-60
2022/01/22 00:31:29;;;;;;;5.50;2.40;;;21.80;45.10;;;;;;5066453;28;26186;-61
2022/01/22 00:33:55;;;;;;;5.40;2.60;;;21.80;45.20;;;;;;5068904;28;20040;-61
2022/01/22 00:36:21;;;;;;;6.47;2.35;;;21.70;45.20;;;;;;5069040;28;20035;-60
2022/01/22 00:38:46;;;;;;;4.63;2.17;;;21.70;45.20;;;;;;5071342;28;20097;-61
2022/01/22 00:41:12;;;;;;;7.20;2.20;;;21.70;45.20;;;;;;5064508;28;20039;-61
2022/01/22 00:43:37;;;;;;;6.22;1.98;;;21.70;45.20;;;;;;5067358;28;20042;-60
2022/01/22 00:46:03;;;;;;;6.07;2.58;;;21.60;45.10;;;;;;5063853;28;38064;-60
2022/01/22 00:48:29;;;;;;;5.07;2.50;;;21.60;45.20;;;;;;5071233;28;20403;-60
2022/01/22 00:50:56;;;;;;;4.57;2.53;;;21.60;45.10;;;;;;5067111;28;20093;-60
2022/01/22 00:53:23;;;;;;;6.00;2.88;;;21.60;45.10;;;;;;5069262;28;20041;-62
2022/01/22 00:55:48;;;;;;;5.05;2.33;;;21.60;45.20;;;;;;5066831;28;20408;-60
2022/01/22 00:58:14;;;;;;;6.90;2.85;;;21.50;45.80;;;;;;5072318;28;20066;-59
2022/01/22 01:00:40;;;;;;;8.95;2.70;;;21.50;45.00;;;;;;5065608;28;20977;-60
2022/01/22 01:03:06;;;;;;;5.93;2.50;;;21.50;45.10;;;;;;5073829;28;20083;-59
2022/01/22 01:05:31;;;;;;;7.72;2.70;;;21.50;45.10;;;;;;5073527;28;20032;-59
2022/01/22 01:07:57;;;;;;;4.93;2.47;;;21.50;45.10;;;;;;5071662;28;20072;-59
2022/01/22 01:10:23;;;;;;;6.22;2.72;;;21.40;45.00;;;;;;5073907;28;20048;-59
2022/01/22 01:12:50;;;;;;;6.20;2.55;;;21.40;45.00;;;;;;5070120;28;38721;-60
2022/01/22 01:32:05;;;;;;;7.70;2.40;;;21.40;45.80;;;;;;5070465;28;20052;-59
2022/01/22 01:34:25;;;;;;;7.60;2.50;;;21.20;45.00;;;;;;5074220;28;20100;-60
2022/01/22 01:36:51;;;;;;;4.07;2.35;;;21.20;45.10;;;;;;5068608;28;20039;-60
2022/01/22 01:39:24;;;;;;;6.10;2.42;;;21.20;45.00;;;;;;5073114;28;20101;-60
2022/01/22 01:42:02;;;;;;;5.80;2.70;;;21.20;44.90;;;;;;5067522;28;46263;-60
2022/01/22 01:44:28;;;;;;;5.82;2.05;;;21.20;45.00;;;;;;5071629;28;20040;-60
2022/01/22 01:46:58;;;;;;;5.30;2.10;;;21.10;45.00;;;;;;5072484;28;20044;-60
2022/01/22 01:49:25;;;;;;;6.73;2.60;;;21.10;44.90;;;;;;5072237;28;20423;-60
2022/01/22 01:51:53;;;;;;;6.30;2.38;;;21.10;45.00;;;;;;5071920;28;20131;-60
2022/01/22 01:54:36;;;;;;;7.47;2.97;;;21.10;45.00;;;;;;5072780;28;20048;-60
2022/01/22 01:59:50;;;;;;;4.55;1.90;;;21.10;45.00;;;;;;5069193;28;20044;-60
2022/01/22 02:02:16;;;;;;;6.13;2.42;;;21.00;44.90;;;;;;5068065;28;20821;-60
2022/01/22 02:04:42;;;;;;;5.05;2.47;;;21.00;44.90;;;;;;5071542;28;20028;-60
2022/01/22 02:07:08;;;;;;;4.43;2.22;;;21.00;45.00;;;;;;5070566;28;20029;-60
2022/01/22 02:09:35;;;;;;;7.93;2.35;;;21.00;44.90;;;;;;5068334;28;43331;-60
2022/01/22 02:12:07;;;;;;;5.43;1.90;;;21.00;45.00;;;;;;5069184;28;20055;-60
2022/01/22 02:25:18;;;;;;;5.45;2.05;;;20.90;45.00;;;;;;5069291;28;46213;-59
2022/01/22 02:27:43;;;;;;;7.15;2.30;;;20.90;45.00;;;;;;5065692;28;20098;-60
2022/01/22 02:30:17;;;;;;;7.75;2.30;;;20.90;45.00;;;;;;5068960;28;20475;-60
2022/01/22 02:35:32;;;;;;;6.30;2.05;;;20.80;45.00;;;;;;5068998;28;20131;-60
2022/01/22 02:38:07;;;;;;;3.80;1.65;;;20.80;45.00;;;;;;5072440;28;20110;-61
2022/01/22 02:40:41;;;;;;;3.65;1.45;;;20.80;44.90;;;;;;5071048;28;20456;-60
2022/01/22 02:43:09;;;;;;;4.88;1.88;;;20.80;45.00;;;;;;5071421;28;20048;-60
2022/01/22 02:45:34;;;;;;;6.40;2.00;;;20.70;44.90;;;;;;5068721;28;20080;-60
2022/01/22 02:48:00;;;;;;;4.03;1.50;;;20.70;44.90;;;;;;5072215;28;20436;-60
2022/01/22 02:50:25;;;;;;;6.50;1.40;;;20.70;44.90;;;;;;5069214;28;20114;-60
2022/01/22 02:52:51;;;;;;;5.28;1.60;;;20.70;44.90;;;;;;5069418;28;45531;-60
2022/01/22 02:55:17;;;;;;;3.45;1.40;;;20.70;45.00;;;;;;5069453;28;20039;-60
2022/01/22 02:57:44;;;;;;;9.32;2.22;;;20.70;45.00;;;;;;5072261;28;20049;-60
2022/01/22 03:00:13;;;;;;;4.88;2.05;;;20.60;45.00;;;;;;5066044;28;20654;-60
2022/01/22 03:02:39;;;;;;;3.78;1.48;;;20.70;45.10;;;;;;5065878;28;20472;-60
2022/01/22 03:05:06;;;;;;;4.13;1.55;;;20.70;45.00;;;;;;5069903;28;20089;-59
2022/01/22 03:07:32;;;;;;;4.35;1.77;;;20.70;45.00;;;;;;5066604;28;40692;-60
2022/01/22 03:10:01;;;;;;;4.80;1.40;;;20.60;45.00;;;;;;5069325;28;20039;-61
2022/01/22 03:17:36;;;;;;;3.55;1.50;;;20.60;45.00;;;;;;5066723;28;20044;-60
2022/01/22 03:28:01;;;;;;;3.78;1.27;;;20.50;45.00;;;;;;5069773;28;20055;-59
2022/01/22 03:30:27;;;;;;;2.75;1.27;;;20.50;45.00;;;;;;5066672;28;20036;-60
2022/01/22 03:32:55;;;;;;;6.13;1.33;;;20.50;45.00;;;;;;5069414;28;20059;-60
2022/01/22 03:37:52;;;;;;;4.65;1.20;;;20.50;45.00;;;;;;5072096;28;20105;-60
2022/01/22 03:40:21;;;;;;;3.50;1.38;;;20.50;45.00;;;;;;5067711;28;20036;-60
2022/01/22 03:42:47;;;;;;;3.28;1.30;;;20.50;45.00;;;;;;5074676;28;20135;-59
2022/01/22 03:45:14;;;;;;;4.53;1.48;;;20.50;45.10;;;;;;5067820;28;20063;-61
2022/01/22 03:47:40;;;;;;;2.67;1.00;;;20.50;45.00;;;;;;5069224;28;48335;-60
2022/01/22 03:50:07;;;;;;;3.63;0.90;;;20.50;45.00;;;;;;5067992;28;20054;-60
2022/01/22 03:52:33;;;;;;;2.85;1.20;;;20.50;45.10;;;;;;5071114;28;20048;-60
2022/01/22 03:54:59;;;;;;;4.07;1.58;;;20.40;45.00;;;;;;5067588;28;20867;-60
2022/01/22 03:57:25;;;;;;;4.72;1.20;;;20.50;45.00;;;;;;5071509;28;20101;-60
2022/01/22 03:59:54;;;;;;;2.38;1.25;;;20.40;45.00;;;;;;5066980;28;20146;-59
2022/01/22 04:05:16;;;;;;;2.45;1.05;;;20.40;45.10;;;;;;4998680;28;20473;-59
2022/01/22 04:10:17;;;;;;;3.10;1.27;;;20.40;45.00;;;;;;5069669;28;20134;-59
2022/01/22 04:12:57;;;;;;;2.03;0.90;;;20.40;45.10;;;;;;5065716;28;20041;-59
2022/01/22 04:15:26;;;;;;;5.43;1.30;;;20.40;45.10;;;;;;5070027;28;20037;-60
2022/01/22 04:26:17;;;;;;;2.92;0.90;;;20.30;45.00;;;;;;5067990;28;20050;-59
2022/01/22 04:28:42;;;;;;;1.98;0.77;;;20.30;45.00;;;;;;5070609;28;20040;-59
2022/01/22 04:31:08;;;;;;;3.20;0.85;;;20.30;45.00;;;;;;5062759;28;45885;-59
2022/01/22 04:33:33;;;;;;;2.90;0.90;;;20.30;45.00;;;;;;5070716;28;20110;-60
2022/01/22 04:35:59;;;;;;;1.95;0.70;;;20.30;45.00;;;;;;5066288;28;20106;-59
2022/01/22 04:38:25;;;;;;;2.03;0.88;;;20.30;45.00;;;;;;5070648;28;20032;-60
2022/01/22 04:40:50;;;;;;;3.00;0.90;;;20.30;45.00;;;;;;5066534;28;20044;-59
2022/01/22 04:43:16;;;;;;;3.00;1.00;;;20.30;45.00;;;;;;5070199;28;20048;-60
2022/01/22 04:48:49;;;;;;;2.03;1.00;;;20.30;45.00;;;;;;5045720;28;20210;-60
2022/01/22 04:56:44;;;;;;;2.70;0.93;;;20.20;45.10;;;;;;5071118;28;20583;-60
2022/01/22 04:59:10;;;;;;;2.05;0.77;;;20.20;45.10;;;;;;5065902;28;20081;-59
2022/01/22 05:01:35;;;;;;;1.42;0.75;;;20.20;45.00;;;;;;5063038;28;20036;-60
2022/01/22 05:04:01;;;;;;;0.70;0.57;;;20.20;45.00;;;;;;5065994;28;20397;-59
2022/01/22 05:06:28;;;;;;;2.33;0.60;;;20.20;45.00;;;;;;5065181;28;20376;-60
2022/01/22 05:08:53;;;;;;;2.03;0.70;;;20.20;45.00;;;;;;5068839;28;20051;-60
2022/01/22 05:11:19;;;;;;;1.70;0.60;;;20.20;45.00;;;;;;5069031;28;20691;-59
2022/01/22 05:13:46;;;;;;;1.23;0.60;;;20.20;45.00;;;;;;5063776;28;36235;-59
2022/01/22 05:16:13;;;;;;;1.17;0.60;;;20.20;45.00;;;;;;5063808;28;20052;-60
2022/01/22 05:18:48;;;;;;;2.13;0.73;;;20.20;45.00;;;;;;5066737;28;20052;-59
2022/01/22 05:21:16;;;;;;;1.73;0.60;;;20.20;45.00;;;;;;5062932;28;20048;-60
2022/01/22 05:23:43;;;;;;;1.67;0.52;;;20.20;45.00;;;;;;5067845;28;20116;-59
2022/01/22 05:26:25;;;;;;;1.25;0.50;;;20.20;45.00;;;;;;5067560;28;36533;-59
2022/01/22 05:31:54;;;;;;;1.90;0.50;;;20.10;45.10;;;;;;5070301;28;20052;-59
2022/01/22 05:37:07;;;;;;;1.13;0.55;;;20.10;45.00;;;;;;5067009;28;20098;-60
2022/01/22 05:39:34;;;;;;;0.90;0.47;;;20.10;45.00;;;;;;5069816;28;20044;-60
2022/01/22 05:42:04;;;;;;;1.73;0.60;;;20.10;45.00;;;;;;5060551;28;45493;-59
2022/01/22 05:44:31;;;;;;;1.42;0.40;;;20.10;45.10;;;;;;5067938;28;20056;-59
2022/01/22 05:47:02;;;;;;;1.98;0.75;;;20.10;45.10;;;;;;5067056;28;20041;-59
2022/01/22 05:49:30;;;;;;;1.95;0.65;;;20.10;45.10;;;;;;5072811;28;20094;-59
2022/01/22 05:51:58;;;;;;;1.10;0.45;;;20.10;45.20;;;;;;5071083;28;20070;-59
2022/01/22 05:59:40;;;;;;;0.90;0.57;;;20.10;45.20;;;;;;5069233;28;20047;-59
2022/01/22 06:02:07;;;;;;;1.67;0.82;;;20.00;45.10;;;;;;5071237;28;20424;-59
2022/01/22 06:04:32;;;;;;;1.08;0.50;;;20.00;45.20;;;;;;5071498;28;20063;-59
2022/01/22 06:06:58;;;;;;;1.90;0.52;;;20.00;45.20;;;;;;5071943;28;20455;-59
2022/01/22 06:09:25;;;;;;;1.52;0.65;;;20.00;45.20;;;;;;5070999;28;34215;-59
2022/01/22 06:11:55;;;;;;;1.15;0.50;;;20.00;45.20;;;;;;5070713;28;20043;-60
2022/01/22 06:14:21;;;;;;;1.17;0.50;;;20.10;45.30;;;;;;5071659;28;20134;-60
2022/01/22 06:16:47;;;;;;;0.82;0.40;;;20.00;45.30;;;;;;5071714;28;20580;-59
2022/01/22 06:19:12;;;;;;;1.55;0.40;;;20.00;45.30;;;;;;5072414;28;20087;-59
2022/01/22 06:21:38;;;;;;;1.50;0.63;;;20.10;45.40;;;;;;5071428;28;20124;-60
2022/01/22 06:24:04;;;;;;;0.85;0.47;;;20.10;45.40;;;;;;5066950;28;39029;-60
2022/01/22 06:26:30;;;;;;;1.05;0.60;;;20.10;45.40;;;;;;5072479;28;20499;-59
2022/01/22 06:28:55;;;;;;;0.68;0.50;;;20.10;45.40;;;;;;5068393;28;20520;-60
2022/01/22 06:31:21;;;;;;;0.50;0.50;;;20.10;45.40;;;;;;5073771;28;20050;-60
2022/01/22 06:33:46;;;;;;;1.25;0.45;;;20.10;45.40;;;;;;5069434;28;20044;-60
2022/01/22 06:36:12;;;;;;;0.80;0.38;;;20.10;45.50;;;;;;5074260;28;20038;-59
2022/01/22 06:38:38;;;;;;;0.98;0.47;;;20.10;45.40;;;;;;5067580;28;39193;-59
2022/01/22 06:43:48;;;;;;;1.13;0.60;;;20.10;45.40;;;;;;5072244;28;20488;-59
2022/01/22 06:46:14;;;;;;;0.90;0.40;;;20.10;45.40;;;;;;5067142;28;20089;-60
2022/01/22 06:48:40;;;;;;;1.15;0.45;;;20.20;45.40;;;;;;5072469;28;20059;-60
2022/01/22 06:51:06;;;;;;;1.05;0.40;;;20.10;45.40;;;;;;5069480;28;39160;-60
2022/01/22 06:53:36;;;;;;;0.90;0.77;;;20.20;45.40;;;;;;5071281;28;20035;-59
2022/01/22 06:56:04;;;;;;;0.70;0.40;;;20.20;45.40;;;;;;5071479;28;20526;-59
2022/01/22 06:58:30;;;;;;;0.40;0.40;;;20.10;45.40;;;;;;5068303;28;20044;-60
2022/01/22 07:00:55;;;;;;;0.73;0.35;;;20.20;45.40;;;;;;5071712;28;20040;-59
2022/01/22 07:03:21;;;;;;;1.08;0.47;;;20.20;45.40;;;;;;5066137;28;20507;-60
2022/01/22 07:05:47;;;;;;;0.77;0.38;;;20.20;45.40;;;;;;5068973;28;34246;-60
2022/01/22 07:08:13;;;;;;;1.15;0.40;;;20.20;45.40;;;;;;5069319;28;20053;-60
2022/01/22 07:10:39;;;;;;;1.48;0.50;;;20.20;45.40;;;;;;5072087;28;20055;-60
2022/01/22 07:13:04;;;;;;;0.80;0.50;;;20.20;45.40;;;;;;5070225;28;20049;-60
2022/01/22 07:15:30;;;;;;;1.63;0.50;;;20.20;45.40;;;;;;5072422;28;20044;-59
2022/01/22 07:17:56;;;;;;;1.42;0.43;;;20.20;45.40;;;;;;5068586;28;20347;-59
2022/01/22 07:20:31;;;;;;;0.68;0.68;;;20.20;45.40;;;;;;5066804;28;38684;-60
2022/01/22 07:23:02;;;;;;;1.40;0.55;;;20.20;45.30;;;;;;5073696;28;20397;-60
2022/01/22 07:25:29;;;;;;;1.42;1.17;;;20.20;45.30;;;;;;5066239;28;20037;-60
2022/01/22 07:27:54;;;;;;;2.35;1.25;;;20.30;45.40;;;;;;5073012;28;20058;-59
2022/01/22 07:30:20;;;;;;;2.30;1.05;;;20.30;45.40;;;;;;5067688;28;20044;-60
2022/01/22 07:32:46;;;;;;;1.88;0.98;;;20.20;45.30;;;;;;5069725;28;43351;-60
2022/01/22 07:35:14;;;;;;;3.80;0.70;;;20.30;45.30;;;;;;5068598;28;20403;-59
2022/01/22 07:37:40;;;;;;;1.33;0.80;;;20.30;45.30;;;;;;5070481;28;20103;-59
2022/01/22 07:40:08;;;;;;;1.30;0.80;;;20.30;45.40;;;;;;5070236;28;20043;-60
2022/01/22 07:42:34;;;;;;;1.15;0.70;;;20.30;45.40;;;;;;5070768;28;20032;-59
2022/01/22 07:45:00;;;;;;;1.63;0.80;;;20.30;45.30;;;;;;5068660;28;20130;-60
2022/01/22 07:47:25;;;;;;;1.35;0.90;;;20.30;45.30;;;;;;5062307;28;43961;-59
2022/01/22 07:49:51;;;;;;;2.42;0.77;;;20.30;45.30;;;;;;5066271;28;20059;-59
2022/01/22 07:52:16;;;;;;;2.63;1.02;;;20.40;45.40;;;;;;5067610;28;20036;-59
2022/01/22 07:54:42;;;;;;;0.95;0.63;;;20.30;45.30;;;;;;5062576;28;20044;-59
2022/01/22 07:57:08;;;;;;;0.93;0.82;;;20.40;45.30;;;;;;5070136;28;20029;-59
2022/01/22 07:59:34;;;;;;;1.00;0.90;;;20.40;46.10;;;;;;5070063;28;20094;-60
2022/01/22 08:02:02;;;;;;;1.75;1.30;;;20.40;45.30;;;;;;5066386;28;31486;-59
2022/01/22 08:04:29;;;;;;;1.25;1.00;;;20.40;45.40;;;;;;5065463;28;20032;-60
2022/01/22 08:06:57;;;;;;;1.42;1.10;;;20.40;45.50;;;;;;5070664;28;20189;-60
2022/01/22 08:09:23;;;;;;;1.00;0.90;;;20.40;45.50;;;;;;5064466;28;20045;-60
2022/01/22 08:11:49;;;;;;;1.30;1.08;;;20.40;45.50;;;;;;5071038;28;20994;-59
2022/01/22 08:14:14;;;;;;;0.80;0.75;;;20.50;45.60;;;;;;5070241;28;20392;-60
2022/01/22 08:16:40;;;;;;;1.50;1.05;;;20.50;45.60;;;;;;5065244;28;31668;-60
2022/01/22 08:19:06;;;;;;;1.30;0.98;;;20.50;45.60;;;;;;5066290;28;20057;-59
2022/01/22 08:21:31;;;;;;;1.00;0.90;;;20.50;45.60;;;;;;5068287;28;20048;-60
2022/01/22 08:23:57;;;;;;;1.73;0.75;;;20.50;45.70;;;;;;5069198;28;20071;-60
2022/01/22 08:26:27;;;;;;;1.33;1.02;;;20.50;45.70;;;;;;5064553;28;20036;-60
2022/01/22 08:28:53;;;;;;;1.30;0.90;;;20.50;45.70;;;;;;5067532;28;31676;-59
2022/01/22 08:31:24;;;;;;;1.52;1.00;;;20.60;45.80;;;;;;5064502;28;20450;-60
2022/01/22 08:36:34;;;;;;;1.60;0.90;;;20.60;45.90;;;;;;5064643;28;19926;-60
2022/01/22 08:39:00;;;;;;;1.33;0.90;;;20.50;45.90;;;;;;5067575;28;20071;-59
2022/01/22 08:41:26;;;;;;;2.58;0.80;;;20.60;46.00;;;;;;5069709;28;20434;-59
2022/01/22 08:43:53;;;;;;;7.22;0.80;;;20.60;46.10;;;;;;5064558;28;45876;-60
2022/01/22 08:46:19;;;;;;;1.67;0.80;;;20.60;46.10;;;;;;5065739;28;21166;-60
2022/01/22 08:48:45;;;;;;;1.08;0.93;;;20.60;46.20;;;;;;5063963;28;20047;-60
2022/01/22 08:51:12;;;;;;;0.98;0.70;;;20.60;46.20;;;;;;5066408;28;20040;-60
2022/01/22 08:53:38;;;;;;;0.73;0.70;;;20.60;46.30;;;;;;5065429;28;20056;-60
2022/01/22 08:56:05;;;;;;;1.15;0.90;;;20.70;46.40;;;;;;5064859;28;20102;-59
2022/01/22 08:58:31;;;;;;;2.78;0.88;;;20.70;46.80;;;;;;5066742;28;33660;-59
2022/01/22 09:00:57;;;;;;;7.28;0.93;;;20.70;46.90;;;;;;5062198;28;20048;-60
2022/01/22 09:03:24;;;;;;;6.63;1.25;;;20.70;47.20;;;;;;5068500;28;20036;-59
2022/01/22 09:05:50;;;;;;;1.00;0.90;;;20.70;47.30;;;;;;5067378;28;20118;-59
2022/01/22 09:08:16;;;;;;;1.48;0.90;;;20.80;47.40;;;;;;5068535;28;20135;-59
2022/01/22 09:10:45;;;;;;;2.17;0.68;;;20.70;47.40;;;;;;5068422;28;20439;-59
2022/01/22 09:13:11;;;;;;;1.15;1.00;;;20.70;47.50;;;;;;5067031;28;43033;-59
2022/01/22 09:15:38;;;;;;;2.05;0.82;;;20.70;47.60;;;;;;5066779;28;20083;-59
2022/01/22 09:18:05;;;;;;;1.98;1.08;;;20.70;47.60;;;;;;5069115;28;20048;-60
2022/01/22 09:21:17;;;;;;;1.50;1.00;;;20.80;47.80;;;;;;5066426;28;20361;-59
2022/01/22 09:23:17;;;;;;;1.25;0.95;;;20.80;47.80;;;;;;5057567;28;20166;-61
2022/01/22 09:25:45;;;;;;;1.20;0.98;;;20.70;47.70;;;;;;5069629;28;33415;-59
2022/01/22 09:28:12;;;;;;;1.17;0.82;;;20.80;47.90;;;;;;5072034;28;20118;-60
2022/01/22 09:30:40;;;;;;;0.85;0.82;;;20.80;48.00;;;;;;5072049;28;20106;-59
2022/01/22 09:33:06;;;;;;;2.17;0.82;;;20.80;48.00;;;;;;5073750;28;20040;-59
2022/01/22 09:35:31;;;;;;;1.17;1.08;;;20.80;48.00;;;;;;5069399;28;20051;-58
2022/01/22 09:37:57;;;;;;;1.75;0.98;;;20.80;47.90;;;;;;5071409;28;20074;-60
2022/01/22 09:40:28;;;;;;;1.90;0.90;;;20.80;47.90;;;;;;5067473;28;43711;-60
2022/01/22 09:42:53;;;;;;;2.53;1.00;;;20.80;47.90;;;;;;5072551;28;20048;-59
2022/01/22 09:45:21;;;;;;;1.77;1.05;;;20.80;47.90;;;;;;5068180;28;20033;-59
2022/01/22 09:47:48;;;;;;;1.63;1.05;;;20.90;48.20;;;;;;5066782;28;20036;-59
2022/01/22 09:50:16;;;;;;;1.35;1.02;;;20.90;48.40;;;;;;5073649;28;20040;-60
2022/01/22 09:52:43;;;;;;;1.98;1.10;;;20.80;48.70;;;;;;5071138;28;20051;-59
2022/01/22 09:55:09;;;;;;;2.33;1.00;;;20.80;48.80;;;;;;5071446;28;31556;-59
2022/01/22 09:57:36;;;;;;;1.27;0.80;;;20.90;48.90;;;;;;5069773;28;20642;-60
2022/01/22 10:00:08;;;;;;;3.67;1.15;;;20.90;49.00;;;;;;5071665;28;20070;-61
2022/01/22 10:02:46;;;;;;;2.05;0.90;;;20.90;49.00;;;;;;5069549;28;20126;-58
2022/01/22 10:05:30;;;;;;;3.33;1.38;;;20.90;49.10;;;;;;5069780;28;20093;-59
2022/01/22 10:08:29;;;;;;;1.75;1.27;;;20.90;49.30;;;;;;5070364;28;40480;-60
2022/01/22 10:10:57;;;;;;;0.88;0.82;;;21.00;49.40;;;;;;5071865;28;20584;-60
2022/01/22 10:13:42;;;;;;;2.35;1.10;;;21.00;49.30;;;;;;5070647;28;20639;-61
2022/01/22 10:16:21;;;;;;;1.90;1.00;;;21.00;49.50;;;;;;5073663;28;20064;-59
2022/01/22 10:19:12;;;;;;;2.25;1.13;;;21.00;49.50;;;;;;5070423;28;20732;-60
2022/01/22 10:21:40;;;;;;;;;;;21.00;49.50;;;;;;5069475;28;36297;-61
2022/01/22 10:24:30;;;;;;;1.50;0.80;;;20.90;49.50;;;;;;5069498;28;19932;-61
2022/01/22 10:30:03;;;;;;;1.63;1.05;;;20.90;49.70;;;;;;5072614;28;20055;-59
2022/01/22 10:32:45;;;;;;;2.92;1.10;;;21.00;49.90;;;;;;5070087;28;20036;-59
2022/01/22 10:35:17;;;;;;;4.25;1.13;;;21.00;50.00;;;;;;5068474;28;20118;-60
2022/01/22 10:37:43;;;;;;;4.18;1.20;;;21.00;50.00;;;;;;5069054;28;23978;-60
2022/01/22 10:40:27;;;;;;;3.65;1.08;;;21.00;50.00;;;;;;5067760;28;20124;-61
2022/01/22 10:43:20;;;;;;;2.95;0.82;;;21.00;50.00;;;;;;5070815;28;20082;-61
2022/01/22 10:49:07;;;;;;;2.25;1.02;;;21.00;50.20;;;;;;5035511;28;20052;-59
2022/01/22 10:51:54;;;;;;;3.22;1.40;;;21.00;50.10;;;;;;5068815;28;33746;-59
2022/01/22 10:54:24;;;;;;;4.47;1.25;;;21.00;50.20;;;;;;5069725;28;20033;-60
2022/01/22 10:56:51;;;;;;;4.72;1.10;;;21.00;50.30;;;;;;5070068;28;20052;-60
2022/01/22 10:59:20;;;;;;;2.92;1.10;;;21.00;50.30;;;;;;5071017;28;20079;-60
2022/01/22 11:01:59;;;;;;;4.47;1.33;;;21.10;50.30;;;;;;5067197;28;20047;-60
2022/01/22 11:04:28;;;;;;;3.08;1.10;;;21.00;50.30;;;;;;5068361;28;40984;-60
2022/01/22 11:07:00;;;;;;;4.90;1.30;;;21.00;50.30;;;;;;5070094;28;20139;-60
2022/01/22 11:09:30;;;;;;;2.58;1.20;;;21.00;50.20;;;;;;5072262;28;20127;-60
2022/01/22 11:11:59;;;;;;;3.25;1.42;;;21.10;50.40;;;;;;5058165;28;20147;-60
2022/01/22 11:14:27;;;;;;;6.10;1.10;;;21.10;50.40;;;;;;5057641;28;20205;-59
2022/01/22 11:16:53;;;;;;;4.47;1.38;;;21.10;50.20;;;;;;5065637;28;20047;-59
2022/01/22 11:19:30;;;;;;;3.08;1.40;;;21.10;51.00;;;;;;5061406;28;31590;-60
2022/01/22 11:21:56;;;;;;;3.60;1.48;;;21.10;50.20;;;;;;5067822;28;20048;-61
2022/01/22 11:24:25;;;;;;;4.35;1.52;;;21.10;50.30;;;;;;5070384;28;20105;-60
2022/01/22 11:26:53;;;;;;;4.72;1.30;;;21.10;50.30;;;;;;5070438;28;20040;-59
2022/01/22 11:29:24;;;;;;;3.25;1.30;;;21.10;50.20;;;;;;5071708;28;20047;-59
2022/01/22 11:31:52;;;;;;;3.45;1.33;;;21.10;50.00;;;;;;5065055;28;33960;-59
2022/01/22 11:34:20;;;;;;;5.43;1.80;;;21.00;49.90;;;;;;5061961;28;20036;-59
2022/01/22 11:36:56;;;;;;;3.67;1.60;;;21.00;49.70;;;;;;5061505;28;20068;-59
2022/01/22 11:39:25;;;;;;;3.40;1.50;;;21.10;49.70;;;;;;5065424;28;20040;-60
2022/01/22 11:41:57;;;;;;;4.13;2.25;;;21.00;49.60;;;;;;5062226;28;20041;-60
2022/01/22 11:44:45;;;;;;;6.88;1.92;;;21.00;49.70;;;;;;5066909;28;20028;-59
2022/01/22 11:47:14;;;;;;;4.35;1.85;;;21.00;49.70;;;;;;5068746;28;43563;-60
2022/01/22 11:50:00;;;;;;;6.00;2.30;;;21.00;49.60;;;;;;5065586;28;20036;-60
2022/01/22 11:52:29;;;;;;;5.57;2.22;;;21.00;49.60;;;;;;5068018;28;20153;-59
2022/01/22 11:55:07;;;;;;;3.38;2.00;;;21.00;49.70;;;;;;5067069;28;20147;-60
2022/01/22 11:57:33;;;;;;;7.57;2.28;;;21.00;49.80;;;;;;5068376;28;20040;-59
2022/01/22 12:00:24;;;;;;;3.65;2.10;;;21.00;49.90;;;;;;5068259;28;29217;-59
2022/01/22 12:03:08;;;;;;;5.50;2.00;;;21.00;50.00;;;;;;5063931;28;20041;-59
2022/01/22 12:05:53;;;;;;;3.67;1.80;;;21.00;50.10;;;;;;5068498;28;20051;-60
2022/01/22 12:08:22;;;;;;;5.97;2.50;;;21.00;50.20;;;;;;5051281;28;20036;-59
2022/01/22 12:16:47;;;;;;;4.97;2.40;;;21.00;50.40;;;;;;5063966;28;20048;-61
2022/01/22 12:19:49;;;;;;;5.35;2.13;;;21.00;50.50;;;;;;5064372;28;20037;-60
2022/01/22 12:22:33;;;;;;;5.05;2.38;;;21.00;50.50;;;;;;5066103;28;20577;-58
2022/01/22 12:25:08;;;;;;;4.72;2.30;;;21.00;50.60;;;;;;5063008;28;20101;-60
2022/01/22 12:27:47;;;;;;;7.25;2.30;;;20.90;50.70;;;;;;5066125;28;20043;-59
2022/01/22 12:30:15;;;;;;;4.00;2.08;;;21.00;50.60;;;;;;5062513;28;38439;-60
2022/01/22 12:32:51;;;;;;;4.93;2.13;;;21.00;50.70;;;;;;5064568;28;20036;-60
2022/01/22 12:35:44;;;;;;;5.57;2.50;;;20.90;50.80;;;;;;5064652;28;20048;-60
2022/01/22 12:38:28;;;;;;;5.60;2.63;;;20.90;50.90;;;;;;5065030;28;20546;-60
2022/01/22 12:41:00;;;;;;;5.13;2.75;;;20.90;51.10;;;;;;5066519;28;20128;-61
2022/01/22 12:43:32;;;;;;;6.60;2.67;;;20.90;51.10;;;;;;5059994;28;31477;-60
2022/01/22 12:46:02;;;;;;;7.72;2.80;;;20.90;51.20;;;;;;5060844;28;20150;-59
2022/01/22 12:48:30;;;;;;;5.00;2.30;;;21.00;51.20;;;;;;5067307;28;20718;-60
2022/01/22 12:51:03;;;;;;;4.57;2.50;;;20.90;51.10;;;;;;5064757;28;20032;-59
2022/01/22 12:53:29;;;;;;;5.35;2.72;;;20.90;51.10;;;;;;5070154;28;20163;-60
2022/01/22 12:58:21;;;;;;;9.15;3.13;;;20.90;51.00;;;;;;5069389;28;45723;-59
2022/01/22 13:00:48;;;;;;;7.70;3.10;;;20.90;50.90;;;;;;5065322;28;20126;-60
2022/01/22 13:03:14;;;;;;;5.80;2.90;;;20.90;50.60;;;;;;5068037;28;21026;-59
2022/01/22 13:05:45;;;;;;;4.88;2.60;;;20.90;50.50;;;;;;5067071;28;20051;-59
2022/01/22 13:08:11;;;;;;;6.47;3.42;;;20.90;50.30;;;;;;5068151;28;20052;-60
2022/01/22 13:10:44;;;;;;;6.13;3.03;;;20.90;50.20;;;;;;5063646;28;38411;-59
2022/01/22 13:13:14;;;;;;;6.70;2.90;;;20.90;50.10;;;;;;5067822;28;20059;-59
2022/01/22 13:15:40;;;;;;;6.67;3.10;;;20.90;50.00;;;;;;5066783;28;20059;-59
2022/01/22 13:18:06;;;;;;;8.85;3.08;;;20.90;49.80;;;;;;5069759;28;20728;-59
2022/01/22 13:20:34;;;;;;;5.68;2.95;;;20.90;49.80;;;;;;5071557;28;20033;-60
2022/01/22 13:23:02;;;;;;;5.70;2.60;;;20.90;49.70;;;;;;5064839;28;20102;-60
2022/01/22 13:25:28;;;;;;;3.95;2.72;;;20.80;49.50;;;;;;5067035;28;41329;-61
2022/01/22 13:28:03;;;;;;;4.90;2.55;;;20.80;49.40;;;;;;5066820;28;20028;-60
2022/01/22 13:30:35;;;;;;;5.57;2.58;;;20.80;49.40;;;;;;5069713;28;20131;-59
2022/01/22 13:33:18;;;;;;;5.15;2.42;;;20.80;49.30;;;;;;5067848;28;20113;-59
2022/01/22 13:49:35;;;;;;;5.28;2.50;;;20.80;48.90;;;;;;5067091;28;20102;-59
2022/01/22 13:52:07;;;;;;;3.78;2.40;;;20.70;48.70;;;;;;5068474;28;20151;-59
2022/01/22 13:54:45;;;;;;;4.15;2.38;;;20.70;48.60;;;;;;5062880;28;29441;-59
2022/01/22 13:57:17;;;;;;;4.25;2.83;;;20.70;48.50;;;;;;5068977;28;20044;-59
2022/01/22 13:59:45;;;;;;;5.38;2.38;;;20.70;48.50;;;;;;5066814;28;20036;-59
2022/01/22 14:04:59;;;;;;;4.97;2.77;;;20.70;48.40;;;;;;5068987;28;20036;-59
2022/01/22 14:07:31;;;;;;;4.93;2.60;;;20.70;48.40;;;;;;5064069;28;43766;-59
2022/01/22 14:10:05;;;;;;;4.03;2.50;;;20.60;48.30;;;;;;5074976;28;20823;-60
2022/01/22 14:12:44;;;;;;;5.13;2.40;;;20.70;48.30;;;;;;5070432;28;20056;-60
2022/01/22 14:15:17;;;;;;;3.60;2.10;;;20.60;48.20;;;;;;5072915;28;20036;-60
2022/01/22 14:20:34;;;;;;;4.43;2.25;;;20.60;48.00;;;;;;5067762;28;26830;-60
2022/01/22 14:23:04;;;;;;;5.10;2.60;;;20.60;48.10;;;;;;5072394;28;20052;-59
2022/01/22 14:25:32;;;;;;;5.38;2.75;;;20.60;48.00;;;;;;5069023;28;20048;-59
2022/01/22 14:28:08;;;;;;;4.55;2.50;;;20.60;48.00;;;;;;5070808;28;20388;-60
2022/01/22 14:30:37;;;;;;;5.28;2.65;;;20.60;47.90;;;;;;5068391;28;20036;-59
2022/01/22 14:33:03;;;;;;;4.82;2.50;;;20.50;47.80;;;;;;5072019;28;20105;-59
2022/01/22 14:35:30;;;;;;;4.57;2.70;;;20.60;47.90;;;;;;5066453;28;31776;-59
2022/01/22 14:37:57;;;;;;;3.88;2.30;;;20.50;47.80;;;;;;5070983;28;20531;-59
2022/01/22 14:46:08;;;;;;;;;;;20.60;47.70;;;;;;4986553;28;20465;-59
2022/01/22 14:48:34;;;;;;;4.35;2.20;;;20.50;47.50;;;;;;5047755;28;36703;-59
2022/01/22 14:50:59;;;;;;;3.85;2.50;;;20.50;47.70;;;;;;5069445;28;20040;-59
2022/01/22 14:53:25;;;;;;;3.45;2.28;;;20.50;47.60;;;;;;5068681;28;20036;-60
2022/01/22 14:55:54;;;;;;;4.57;2.33;;;20.50;47.60;;;;;;5074087;28;20043;-59
2022/01/22 14:58:19;;;;;;;4.78;2.30;;;20.50;47.60;;;;;;5065831;28;20028;-59
2022/01/22 15:00:45;;;;;;;6.20;2.10;;;20.50;47.60;;;;;;5055516;28;20123;-59
2022/01/22 15:03:11;;;;;;;8.20;2.10;;;20.50;47.60;;;;;;5062382;28;28982;-60
2022/01/22 15:05:37;;;;;;;4.78;2.20;;;20.50;47.90;;;;;;5064855;28;20047;-60